sensor_id;sensor_type;location;lat;lon;timestamp;P1;durP1;ratioP1;P2;durP2;ratioP2
77384;SDS011;66443;49.122;8.346;2023-03-20T00:00:45;1.87;;;1.77;;
77384;SDS011;66443;49.122;8.346;2023-03-20T00:03:11;2.13;;;1.90;;
77384;SDS011;66443;49.122;8.346;2023-03-20T00:05:37;2.10;;;1.73;;
77384;SDS011;66443;49.122;8.346;2023-03-20T00:08:02;2.13;;;2.03;;
77384;SDS011;66443;49.122;8.346;2023-03-20T00:10:34;2.03;;;1.83;;
77384;SDS011;66443;49.122;8.346;2023-03-20T00:13:00;1.87;;;1.77;;
77384;SDS011;66443;49.122;8.346;2023-03-20T00:15:27;1.80;;;1.70;;
77384;SDS011;66443;49.122;8.346;2023-03-20T00:17:53;2.50;;;2.30;;
77384;SDS011;66443;49.122;8.346;2023-03-20T00:20:18;2.17;;;1.97;;
77384;SDS011;66443;49.122;8.346;2023-03-20T00:22:44;1.50;;;1.40;;
77384;SDS011;66443;49.122;8.346;2023-03-20T00:25:16;1.90;;;1.67;;
77384;SDS011;66443;49.122;8.346;2023-03-20T00:27:42;2.00;;;1.90;;
77384;SDS011;66443;49.122;8.346;2023-03-20T00:30:13;2.50;;;1.67;;
77384;SDS011;66443;49.122;8.346;2023-03-20T00:32:39;2.27;;;2.07;;
77384;SDS011;66443;49.122;8.346;2023-03-20T00:35:18;1.40;;;1.30;;
77384;SDS011;66443;49.122;8.346;2023-03-20T00:37:44;2.37;;;2.13;;
77384;SDS011;66443;49.122;8.346;2023-03-20T00:40:09;1.87;;;1.73;;
77384;SDS011;66443;49.122;8.346;2023-03-20T00:42:35;2.10;;;1.90;;
77384;SDS011;66443;49.122;8.346;2023-03-20T00:45:00;2.70;;;2.50;;
77384;SDS011;66443;49.122;8.346;2023-03-20T00:47:26;2.80;;;2.60;;
77384;SDS011;66443;49.122;8.346;2023-03-20T00:49:52;2.70;;;2.50;;
77384;SDS011;66443;49.122;8.346;2023-03-20T00:52:19;2.30;;;2.10;;
77384;SDS011;66443;49.122;8.346;2023-03-20T00:54:44;3.43;;;2.47;;
77384;SDS011;66443;49.122;8.346;2023-03-20T00:57:13;2.50;;;2.17;;
77384;SDS011;66443;49.122;8.346;2023-03-20T00:59:50;5.53;;;2.37;;
77384;SDS011;66443;49.122;8.346;2023-03-20T01:02:17;2.57;;;2.37;;
77384;SDS011;66443;49.122;8.346;2023-03-20T01:04:42;2.50;;;2.37;;
77384;SDS011;66443;49.122;8.346;2023-03-20T01:07:11;3.00;;;2.30;;
77384;SDS011;66443;49.122;8.346;2023-03-20T01:09:37;2.73;;;2.53;;
77384;SDS011;66443;49.122;8.346;2023-03-20T01:12:03;2.40;;;2.20;;
77384;SDS011;66443;49.122;8.346;2023-03-20T01:14:28;9.67;;;2.43;;
77384;SDS011;66443;49.122;8.346;2023-03-20T01:16:54;2.77;;;2.57;;
77384;SDS011;66443;49.122;8.346;2023-03-20T01:19:19;2.90;;;2.67;;
77384;SDS011;66443;49.122;8.346;2023-03-20T01:21:45;3.40;;;3.10;;
77384;SDS011;66443;49.122;8.346;2023-03-20T01:24:10;3.93;;;2.70;;
77384;SDS011;66443;49.122;8.346;2023-03-20T01:26:36;3.13;;;2.93;;
77384;SDS011;66443;49.122;8.346;2023-03-20T01:29:02;2.90;;;2.70;;
77384;SDS011;66443;49.122;8.346;2023-03-20T01:31:27;3.10;;;2.73;;
77384;SDS011;66443;49.122;8.346;2023-03-20T01:33:52;3.20;;;2.90;;
77384;SDS011;66443;49.122;8.346;2023-03-20T01:36:19;3.17;;;2.87;;
77384;SDS011;66443;49.122;8.346;2023-03-20T01:38:45;3.50;;;3.20;;
77384;SDS011;66443;49.122;8.346;2023-03-20T01:41:12;3.50;;;3.20;;
77384;SDS011;66443;49.122;8.346;2023-03-20T01:43:38;4.60;;;3.30;;
77384;SDS011;66443;49.122;8.346;2023-03-20T01:51:13;3.40;;;3.10;;
77384;SDS011;66443;49.122;8.346;2023-03-20T01:53:38;4.27;;;3.93;;
77384;SDS011;66443;49.122;8.346;2023-03-20T01:56:03;3.50;;;3.20;;
77384;SDS011;66443;49.122;8.346;2023-03-20T01:58:36;3.33;;;3.03;;
77384;SDS011;66443;49.122;8.346;2023-03-20T02:01:04;3.23;;;3.00;;
77384;SDS011;66443;49.122;8.346;2023-03-20T02:03:30;3.80;;;3.50;;
77384;SDS011;66443;49.122;8.346;2023-03-20T02:05:56;3.97;;;3.67;;
77384;SDS011;66443;49.122;8.346;2023-03-20T02:08:23;4.10;;;3.70;;
77384;SDS011;66443;49.122;8.346;2023-03-20T02:10:49;4.17;;;3.87;;
77384;SDS011;66443;49.122;8.346;2023-03-20T02:13:14;4.70;;;4.27;;
77384;SDS011;66443;49.122;8.346;2023-03-20T02:18:20;4.43;;;4.13;;
77384;SDS011;66443;49.122;8.346;2023-03-20T02:20:54;4.60;;;4.30;;
77384;SDS011;66443;49.122;8.346;2023-03-20T02:29:01;4.37;;;4.03;;
77384;SDS011;66443;49.122;8.346;2023-03-20T02:31:50;4.63;;;4.23;;
77384;SDS011;66443;49.122;8.346;2023-03-20T02:47:17;6.33;;;5.73;;
77384;SDS011;66443;49.122;8.346;2023-03-20T02:50:02;5.83;;;5.23;;
77384;SDS011;66443;49.122;8.346;2023-03-20T03:00:12;6.00;;;5.50;;
77384;SDS011;66443;49.122;8.346;2023-03-20T03:03:03;7.13;;;5.07;;
77384;SDS011;66443;49.122;8.346;2023-03-20T03:05:26;6.03;;;5.47;;
77384;SDS011;66443;49.122;8.346;2023-03-20T03:07:54;6.13;;;5.63;;
77384;SDS011;66443;49.122;8.346;2023-03-20T03:10:21;7.20;;;5.90;;
77384;SDS011;66443;49.122;8.346;2023-03-20T03:12:48;5.90;;;5.40;;
77384;SDS011;66443;49.122;8.346;2023-03-20T03:15:17;6.47;;;5.87;;
77384;SDS011;66443;49.122;8.346;2023-03-20T03:17:43;6.27;;;5.67;;
77384;SDS011;66443;49.122;8.346;2023-03-20T03:23:05;7.23;;;6.53;;
77384;SDS011;66443;49.122;8.346;2023-03-20T03:25:32;8.43;;;6.50;;
77384;SDS011;66443;49.122;8.346;2023-03-20T03:28:02;6.97;;;6.37;;
77384;SDS011;66443;49.122;8.346;2023-03-20T03:30:30;6.53;;;6.03;;
77384;SDS011;66443;49.122;8.346;2023-03-20T03:35:37;7.67;;;6.87;;
77384;SDS011;66443;49.122;8.346;2023-03-20T03:38:12;7.73;;;7.03;;
77384;SDS011;66443;49.122;8.346;2023-03-20T03:43:07;7.60;;;6.80;;
77384;SDS011;66443;49.122;8.346;2023-03-20T03:45:42;8.43;;;7.13;;
77384;SDS011;66443;49.122;8.346;2023-03-20T03:48:19;8.07;;;7.37;;
77384;SDS011;66443;49.122;8.346;2023-03-20T03:50:55;8.93;;;8.03;;
77384;SDS011;66443;49.122;8.346;2023-03-20T03:53:21;8.90;;;8.10;;
77384;SDS011;66443;49.122;8.346;2023-03-20T03:55:49;7.87;;;7.17;;
77384;SDS011;66443;49.122;8.346;2023-03-20T03:58:20;8.30;;;7.60;;
77384;SDS011;66443;49.122;8.346;2023-03-20T04:00:46;8.37;;;7.57;;
77384;SDS011;66443;49.122;8.346;2023-03-20T04:03:14;8.80;;;7.93;;
77384;SDS011;66443;49.122;8.346;2023-03-20T04:05:40;9.33;;;8.53;;
77384;SDS011;66443;49.122;8.346;2023-03-20T04:08:06;9.87;;;7.93;;
77384;SDS011;66443;49.122;8.346;2023-03-20T04:10:32;9.47;;;8.57;;
77384;SDS011;66443;49.122;8.346;2023-03-20T04:12:57;9.83;;;8.83;;
77384;SDS011;66443;49.122;8.346;2023-03-20T04:15:22;10.07;;;9.17;;
77384;SDS011;66443;49.122;8.346;2023-03-20T04:17:47;9.77;;;8.83;;
77384;SDS011;66443;49.122;8.346;2023-03-20T04:20:13;11.17;;;9.80;;
77384;SDS011;66443;49.122;8.346;2023-03-20T04:22:38;13.30;;;10.47;;
77384;SDS011;66443;49.122;8.346;2023-03-20T04:25:04;10.40;;;9.47;;
77384;SDS011;66443;49.122;8.346;2023-03-20T04:27:29;11.50;;;9.77;;
77384;SDS011;66443;49.122;8.346;2023-03-20T04:29:55;11.23;;;10.23;;
77384;SDS011;66443;49.122;8.346;2023-03-20T04:32:20;11.47;;;10.37;;
77384;SDS011;66443;49.122;8.346;2023-03-20T04:34:45;9.80;;;8.90;;
77384;SDS011;66443;49.122;8.346;2023-03-20T04:37:11;10.43;;;9.43;;
77384;SDS011;66443;49.122;8.346;2023-03-20T04:39:36;10.87;;;9.87;;
77384;SDS011;66443;49.122;8.346;2023-03-20T04:42:01;11.00;;;10.10;;
77384;SDS011;66443;49.122;8.346;2023-03-20T04:44:26;10.33;;;9.27;;
77384;SDS011;66443;49.122;8.346;2023-03-20T04:46:52;10.67;;;9.57;;
77384;SDS011;66443;49.122;8.346;2023-03-20T04:49:17;11.20;;;9.57;;
77384;SDS011;66443;49.122;8.346;2023-03-20T04:51:42;12.30;;;10.10;;
77384;SDS011;66443;49.122;8.346;2023-03-20T04:54:07;11.93;;;10.07;;
77384;SDS011;66443;49.122;8.346;2023-03-20T04:56:32;9.60;;;8.80;;
77384;SDS011;66443;49.122;8.346;2023-03-20T04:58:58;10.33;;;9.23;;
77384;SDS011;66443;49.122;8.346;2023-03-20T05:01:23;10.77;;;9.67;;
77384;SDS011;66443;49.122;8.346;2023-03-20T05:03:48;10.93;;;9.93;;
77384;SDS011;66443;49.122;8.346;2023-03-20T05:06:14;11.27;;;10.27;;
77384;SDS011;66443;49.122;8.346;2023-03-20T05:08:39;10.77;;;9.67;;
77384;SDS011;66443;49.122;8.346;2023-03-20T05:11:04;10.23;;;9.23;;
77384;SDS011;66443;49.122;8.346;2023-03-20T05:13:29;10.70;;;9.53;;
77384;SDS011;66443;49.122;8.346;2023-03-20T05:15:55;11.03;;;10.03;;
77384;SDS011;66443;49.122;8.346;2023-03-20T05:18:20;10.90;;;9.90;;
77384;SDS011;66443;49.122;8.346;2023-03-20T05:20:47;10.73;;;9.70;;
77384;SDS011;66443;49.122;8.346;2023-03-20T05:23:12;11.10;;;9.97;;
77384;SDS011;66443;49.122;8.346;2023-03-20T05:25:37;13.00;;;11.70;;
77384;SDS011;66443;49.122;8.346;2023-03-20T05:28:02;12.23;;;11.03;;
77384;SDS011;66443;49.122;8.346;2023-03-20T05:30:28;11.73;;;10.53;;
77384;SDS011;66443;49.122;8.346;2023-03-20T05:32:53;14.20;;;11.00;;
77384;SDS011;66443;49.122;8.346;2023-03-20T05:35:18;11.00;;;10.00;;
77384;SDS011;66443;49.122;8.346;2023-03-20T05:37:43;12.70;;;11.50;;
77384;SDS011;66443;49.122;8.346;2023-03-20T05:40:13;11.33;;;10.27;;
77384;SDS011;66443;49.122;8.346;2023-03-20T05:42:38;13.40;;;11.40;;
77384;SDS011;66443;49.122;8.346;2023-03-20T05:45:04;12.33;;;11.07;;
77384;SDS011;66443;49.122;8.346;2023-03-20T05:47:29;12.80;;;11.50;;
77384;SDS011;66443;49.122;8.346;2023-03-20T05:49:55;12.00;;;10.90;;
77384;SDS011;66443;49.122;8.346;2023-03-20T05:52:20;12.50;;;11.30;;
77384;SDS011;66443;49.122;8.346;2023-03-20T05:54:45;12.10;;;10.90;;
77384;SDS011;66443;49.122;8.346;2023-03-20T05:57:11;13.30;;;11.90;;
77384;SDS011;66443;49.122;8.346;2023-03-20T05:59:36;11.70;;;10.57;;
77384;SDS011;66443;49.122;8.346;2023-03-20T06:02:01;11.37;;;10.27;;
77384;SDS011;66443;49.122;8.346;2023-03-20T06:04:26;11.53;;;10.43;;
77384;SDS011;66443;49.122;8.346;2023-03-20T06:06:52;12.90;;;11.70;;
77384;SDS011;66443;49.122;8.346;2023-03-20T06:09:17;12.87;;;11.50;;
77384;SDS011;66443;49.122;8.346;2023-03-20T06:11:42;12.33;;;11.13;;
77384;SDS011;66443;49.122;8.346;2023-03-20T06:14:07;11.80;;;10.57;;
77384;SDS011;66443;49.122;8.346;2023-03-20T06:16:32;12.70;;;11.47;;
77384;SDS011;66443;49.122;8.346;2023-03-20T06:18:57;11.40;;;10.23;;
77384;SDS011;66443;49.122;8.346;2023-03-20T06:21:23;13.23;;;10.93;;
77384;SDS011;66443;49.122;8.346;2023-03-20T06:23:48;11.77;;;10.57;;
77384;SDS011;66443;49.122;8.346;2023-03-20T06:26:13;12.03;;;10.53;;
77384;SDS011;66443;49.122;8.346;2023-03-20T06:28:38;15.70;;;11.47;;
77384;SDS011;66443;49.122;8.346;2023-03-20T06:31:04;12.67;;;11.20;;
77384;SDS011;66443;49.122;8.346;2023-03-20T06:33:29;12.07;;;10.80;;
77384;SDS011;66443;49.122;8.346;2023-03-20T06:35:54;12.93;;;11.47;;
77384;SDS011;66443;49.122;8.346;2023-03-20T06:38:19;13.63;;;11.47;;
77384;SDS011;66443;49.122;8.346;2023-03-20T06:40:45;13.67;;;11.77;;
77384;SDS011;66443;49.122;8.346;2023-03-20T06:43:10;16.30;;;13.57;;
77384;SDS011;66443;49.122;8.346;2023-03-20T06:45:36;12.70;;;11.43;;
77384;SDS011;66443;49.122;8.346;2023-03-20T06:48:04;13.83;;;12.37;;
77384;SDS011;66443;49.122;8.346;2023-03-20T06:50:29;13.63;;;12.23;;
77384;SDS011;66443;49.122;8.346;2023-03-20T06:52:54;14.20;;;12.60;;
77384;SDS011;66443;49.122;8.346;2023-03-20T06:55:20;13.63;;;12.13;;
77384;SDS011;66443;49.122;8.346;2023-03-20T06:57:45;12.57;;;11.27;;
77384;SDS011;66443;49.122;8.346;2023-03-20T07:00:10;13.93;;;12.10;;
77384;SDS011;66443;49.122;8.346;2023-03-20T07:02:36;13.40;;;11.20;;
77384;SDS011;66443;49.122;8.346;2023-03-20T07:05:01;12.83;;;11.43;;
77384;SDS011;66443;49.122;8.346;2023-03-20T07:07:27;13.00;;;11.63;;
77384;SDS011;66443;49.122;8.346;2023-03-20T07:09:52;13.90;;;11.80;;
77384;SDS011;66443;49.122;8.346;2023-03-20T07:12:17;17.20;;;12.27;;
77384;SDS011;66443;49.122;8.346;2023-03-20T07:14:44;14.27;;;12.70;;
77384;SDS011;66443;49.122;8.346;2023-03-20T07:17:10;12.47;;;10.73;;
77384;SDS011;66443;49.122;8.346;2023-03-20T07:19:35;14.13;;;12.63;;
77384;SDS011;66443;49.122;8.346;2023-03-20T07:22:01;14.17;;;12.67;;
77384;SDS011;66443;49.122;8.346;2023-03-20T07:24:27;15.50;;;11.83;;
77384;SDS011;66443;49.122;8.346;2023-03-20T07:26:52;13.17;;;11.47;;
77384;SDS011;66443;49.122;8.346;2023-03-20T07:29:17;14.07;;;12.00;;
77384;SDS011;66443;49.122;8.346;2023-03-20T07:31:43;15.53;;;13.67;;
77384;SDS011;66443;49.122;8.346;2023-03-20T07:34:08;13.50;;;12.10;;
77384;SDS011;66443;49.122;8.346;2023-03-20T07:36:33;14.83;;;13.20;;
77384;SDS011;66443;49.122;8.346;2023-03-20T07:38:58;14.30;;;12.53;;
77384;SDS011;66443;49.122;8.346;2023-03-20T07:41:23;15.07;;;12.43;;
77384;SDS011;66443;49.122;8.346;2023-03-20T07:43:48;14.77;;;13.27;;
77384;SDS011;66443;49.122;8.346;2023-03-20T07:46:14;14.10;;;12.23;;
77384;SDS011;66443;49.122;8.346;2023-03-20T07:48:39;17.53;;;12.60;;
77384;SDS011;66443;49.122;8.346;2023-03-20T07:51:05;14.37;;;12.93;;
77384;SDS011;66443;49.122;8.346;2023-03-20T07:53:30;14.47;;;12.97;;
77384;SDS011;66443;49.122;8.346;2023-03-20T07:55:55;15.13;;;13.00;;
77384;SDS011;66443;49.122;8.346;2023-03-20T07:58:20;15.27;;;12.90;;
77384;SDS011;66443;49.122;8.346;2023-03-20T08:00:45;14.93;;;11.70;;
77384;SDS011;66443;49.122;8.346;2023-03-20T08:03:11;12.90;;;11.53;;
77384;SDS011;66443;49.122;8.346;2023-03-20T08:05:36;12.27;;;11.00;;
77384;SDS011;66443;49.122;8.346;2023-03-20T08:08:01;12.93;;;11.37;;
77384;SDS011;66443;49.122;8.346;2023-03-20T08:10:27;12.90;;;11.63;;
77384;SDS011;66443;49.122;8.346;2023-03-20T08:12:52;14.07;;;12.37;;
77384;SDS011;66443;49.122;8.346;2023-03-20T08:15:17;13.07;;;10.53;;
77384;SDS011;66443;49.122;8.346;2023-03-20T08:17:43;10.90;;;9.53;;
77384;SDS011;66443;49.122;8.346;2023-03-20T08:20:09;12.47;;;11.23;;
77384;SDS011;66443;49.122;8.346;2023-03-20T08:22:34;11.37;;;10.13;;
77384;SDS011;66443;49.122;8.346;2023-03-20T08:25:00;11.50;;;10.30;;
77384;SDS011;66443;49.122;8.346;2023-03-20T08:27:25;12.40;;;10.20;;
77384;SDS011;66443;49.122;8.346;2023-03-20T08:29:50;11.60;;;10.40;;
77384;SDS011;66443;49.122;8.346;2023-03-20T08:32:15;10.53;;;9.43;;
77384;SDS011;66443;49.122;8.346;2023-03-20T08:34:40;11.00;;;9.90;;
77384;SDS011;66443;49.122;8.346;2023-03-20T08:37:06;9.63;;;8.70;;
77384;SDS011;66443;49.122;8.346;2023-03-20T08:39:32;10.90;;;9.83;;
77384;SDS011;66443;49.122;8.346;2023-03-20T08:41:57;10.50;;;9.53;;
77384;SDS011;66443;49.122;8.346;2023-03-20T08:44:22;11.43;;;8.93;;
77384;SDS011;66443;49.122;8.346;2023-03-20T08:46:47;9.73;;;8.73;;
77384;SDS011;66443;49.122;8.346;2023-03-20T08:49:13;9.90;;;9.00;;
77384;SDS011;66443;49.122;8.346;2023-03-20T08:51:38;10.10;;;8.63;;
77384;SDS011;66443;49.122;8.346;2023-03-20T08:54:03;9.23;;;8.33;;
77384;SDS011;66443;49.122;8.346;2023-03-20T08:56:28;9.60;;;8.00;;
77384;SDS011;66443;49.122;8.346;2023-03-20T08:58:53;8.82;;;7.93;;
77384;SDS011;66443;49.122;8.346;2023-03-20T09:01:19;9.40;;;8.50;;
77384;SDS011;66443;49.122;8.346;2023-03-20T09:03:45;8.43;;;7.53;;
77384;SDS011;66443;49.122;8.346;2023-03-20T09:06:10;9.80;;;8.30;;
77384;SDS011;66443;49.122;8.346;2023-03-20T09:08:35;10.73;;;7.53;;
77384;SDS011;66443;49.122;8.346;2023-03-20T09:11:00;9.83;;;8.87;;
77384;SDS011;66443;49.122;8.346;2023-03-20T09:13:26;8.60;;;7.73;;
77384;SDS011;66443;49.122;8.346;2023-03-20T09:15:52;8.60;;;7.70;;
77384;SDS011;66443;49.122;8.346;2023-03-20T09:18:18;8.20;;;7.40;;
77384;SDS011;66443;49.122;8.346;2023-03-20T09:20:44;8.67;;;7.87;;
77384;SDS011;66443;49.122;8.346;2023-03-20T09:23:09;7.80;;;7.10;;
77384;SDS011;66443;49.122;8.346;2023-03-20T09:25:35;7.30;;;6.60;;
77384;SDS011;66443;49.122;8.346;2023-03-20T09:28:00;9.50;;;7.33;;
77384;SDS011;66443;49.122;8.346;2023-03-20T09:30:25;7.27;;;6.63;;
77384;SDS011;66443;49.122;8.346;2023-03-20T09:32:50;7.27;;;6.57;;
77384;SDS011;66443;49.122;8.346;2023-03-20T09:35:16;9.00;;;6.53;;
77384;SDS011;66443;49.122;8.346;2023-03-20T09:37:41;7.13;;;6.43;;
77384;SDS011;66443;49.122;8.346;2023-03-20T09:40:07;6.57;;;5.70;;
77384;SDS011;66443;49.122;8.346;2023-03-20T09:45:13;6.07;;;5.47;;
77384;SDS011;66443;49.122;8.346;2023-03-20T09:47:43;5.70;;;5.20;;
77384;SDS011;66443;49.122;8.346;2023-03-20T09:50:16;6.57;;;5.97;;
77384;SDS011;66443;49.122;8.346;2023-03-20T09:53:47;6.47;;;5.73;;
77384;SDS011;66443;49.122;8.346;2023-03-20T09:55:41;6.23;;;5.67;;
77384;SDS011;66443;49.122;8.346;2023-03-20T10:00:35;6.43;;;5.83;;
77384;SDS011;66443;49.122;8.346;2023-03-20T10:03:02;6.20;;;5.60;;
77384;SDS011;66443;49.122;8.346;2023-03-20T10:05:29;5.70;;;5.20;;
77384;SDS011;66443;49.122;8.346;2023-03-20T10:07:56;4.97;;;4.30;;
77384;SDS011;66443;49.122;8.346;2023-03-20T10:15:56;4.80;;;4.40;;
77384;SDS011;66443;49.122;8.346;2023-03-20T10:18:28;3.93;;;3.63;;
77384;SDS011;66443;49.122;8.346;2023-03-20T10:20:56;4.43;;;4.03;;
77384;SDS011;66443;49.122;8.346;2023-03-20T10:23:39;4.27;;;3.73;;
77384;SDS011;66443;49.122;8.346;2023-03-20T10:26:10;7.30;;;4.77;;
77384;SDS011;66443;49.122;8.346;2023-03-20T10:33:53;5.03;;;4.10;;
77384;SDS011;66443;49.122;8.346;2023-03-20T10:36:37;4.57;;;4.17;;
77384;SDS011;66443;49.122;8.346;2023-03-20T10:39:05;4.23;;;3.90;;
77384;SDS011;66443;49.122;8.346;2023-03-20T10:41:35;3.83;;;3.53;;
77384;SDS011;66443;49.122;8.346;2023-03-20T10:44:02;4.70;;;4.30;;
77384;SDS011;66443;49.122;8.346;2023-03-20T10:46:29;7.87;;;3.93;;
77384;SDS011;66443;49.122;8.346;2023-03-20T10:48:59;4.27;;;3.87;;
77384;SDS011;66443;49.122;8.346;2023-03-20T10:51:35;4.20;;;3.90;;
77384;SDS011;66443;49.122;8.346;2023-03-20T10:54:02;3.93;;;3.63;;
77384;SDS011;66443;49.122;8.346;2023-03-20T10:56:35;3.80;;;3.50;;
77384;SDS011;66443;49.122;8.346;2023-03-20T10:59:21;5.13;;;3.87;;
77384;SDS011;66443;49.122;8.346;2023-03-20T11:01:46;3.87;;;3.57;;
77384;SDS011;66443;49.122;8.346;2023-03-20T11:04:11;3.97;;;3.67;;
77384;SDS011;66443;49.122;8.346;2023-03-20T11:06:59;4.17;;;3.77;;
77384;SDS011;66443;49.122;8.346;2023-03-20T11:09:23;3.87;;;3.47;;
77384;SDS011;66443;49.122;8.346;2023-03-20T11:11:51;4.47;;;4.07;;
77384;SDS011;66443;49.122;8.346;2023-03-20T11:14:18;4.87;;;3.93;;
77384;SDS011;66443;49.122;8.346;2023-03-20T11:16:46;4.33;;;4.00;;
77384;SDS011;66443;49.122;8.346;2023-03-20T11:19:11;6.20;;;4.07;;
77384;SDS011;66443;49.122;8.346;2023-03-20T11:21:46;4.43;;;4.03;;
77384;SDS011;66443;49.122;8.346;2023-03-20T11:27:04;4.20;;;3.90;;
77384;SDS011;66443;49.122;8.346;2023-03-20T11:29:30;4.10;;;3.80;;
77384;SDS011;66443;49.122;8.346;2023-03-20T11:32:44;3.60;;;3.30;;
77384;SDS011;66443;49.122;8.346;2023-03-20T11:34:47;3.30;;;3.00;;
77384;SDS011;66443;49.122;8.346;2023-03-20T11:37:20;3.10;;;2.90;;
77384;SDS011;66443;49.122;8.346;2023-03-20T11:39:56;3.30;;;2.63;;
77384;SDS011;66443;49.122;8.346;2023-03-20T11:42:23;3.27;;;2.87;;
77384;SDS011;66443;49.122;8.346;2023-03-20T11:44:55;4.47;;;2.90;;
77384;SDS011;66443;49.122;8.346;2023-03-20T11:47:21;2.57;;;2.00;;
77384;SDS011;66443;49.122;8.346;2023-03-20T11:49:51;2.03;;;1.63;;
77384;SDS011;66443;49.122;8.346;2023-03-20T11:52:21;1.93;;;1.60;;
77384;SDS011;66443;49.122;8.346;2023-03-20T11:54:49;1.33;;;1.23;;
77384;SDS011;66443;49.122;8.346;2023-03-20T12:02:30;2.03;;;1.80;;
77384;SDS011;66443;49.122;8.346;2023-03-20T12:04:58;1.53;;;1.43;;
77384;SDS011;66443;49.122;8.346;2023-03-20T12:07:32;5.33;;;2.00;;
77384;SDS011;66443;49.122;8.346;2023-03-20T12:10:00;2.30;;;2.10;;
77384;SDS011;66443;49.122;8.346;2023-03-20T12:17:56;1.92;;;1.83;;
77384;SDS011;66443;49.122;8.346;2023-03-20T12:23:01;2.10;;;2.00;;
77384;SDS011;66443;49.122;8.346;2023-03-20T12:25:35;3.97;;;2.00;;
77384;SDS011;66443;49.122;8.346;2023-03-20T12:28:02;2.23;;;2.03;;
77384;SDS011;66443;49.122;8.346;2023-03-20T12:30:43;2.17;;;1.97;;
77384;SDS011;66443;49.122;8.346;2023-03-20T12:33:11;3.93;;;2.30;;
77384;SDS011;66443;49.122;8.346;2023-03-20T12:35:39;2.67;;;2.20;;
77384;SDS011;66443;49.122;8.346;2023-03-20T12:40:46;2.60;;;2.40;;
77384;SDS011;66443;49.122;8.346;2023-03-20T12:43:15;2.53;;;2.33;;
77384;SDS011;66443;49.122;8.346;2023-03-20T12:45:46;2.70;;;2.50;;
77384;SDS011;66443;49.122;8.346;2023-03-20T12:53:42;3.00;;;2.70;;
77384;SDS011;66443;49.122;8.346;2023-03-20T12:56:16;5.60;;;3.07;;
77384;SDS011;66443;49.122;8.346;2023-03-20T13:01:30;2.87;;;2.60;;
77384;SDS011;66443;49.122;8.346;2023-03-20T13:07:01;9.47;;;2.53;;
77384;SDS011;66443;49.122;8.346;2023-03-20T13:12:03;2.83;;;2.10;;
77384;SDS011;66443;49.122;8.346;2023-03-20T13:14:38;2.27;;;2.07;;
77384;SDS011;66443;49.122;8.346;2023-03-20T13:27:05;4.80;;;1.63;;
77384;SDS011;66443;49.122;8.346;2023-03-20T13:37:36;2.33;;;1.40;;
77384;SDS011;66443;49.122;8.346;2023-03-20T13:42:41;1.70;;;1.60;;
77384;SDS011;66443;49.122;8.346;2023-03-20T13:45:20;1.60;;;1.50;;
77384;SDS011;66443;49.122;8.346;2023-03-20T13:47:48;2.20;;;1.40;;
77384;SDS011;66443;49.122;8.346;2023-03-20T13:53:02;2.50;;;1.37;;
77384;SDS011;66443;49.122;8.346;2023-03-20T13:55:32;1.90;;;1.40;;
77384;SDS011;66443;49.122;8.346;2023-03-20T13:58:04;2.13;;;1.30;;
77384;SDS011;66443;49.122;8.346;2023-03-20T14:03:31;6.07;;;1.70;;
77384;SDS011;66443;49.122;8.346;2023-03-20T14:05:57;1.93;;;1.70;;
77384;SDS011;66443;49.122;8.346;2023-03-20T14:08:29;2.10;;;1.30;;
77384;SDS011;66443;49.122;8.346;2023-03-20T14:13:31;1.77;;;1.40;;
77384;SDS011;66443;49.122;8.346;2023-03-20T14:15:56;1.93;;;1.63;;
77384;SDS011;66443;49.122;8.346;2023-03-20T14:18:25;2.83;;;1.90;;
77384;SDS011;66443;49.122;8.346;2023-03-20T14:20:57;1.53;;;1.43;;
77384;SDS011;66443;49.122;8.346;2023-03-20T14:23:36;2.70;;;2.17;;
77384;SDS011;66443;49.122;8.346;2023-03-20T14:26:07;2.47;;;1.57;;
77384;SDS011;66443;49.122;8.346;2023-03-20T14:28:42;2.30;;;1.70;;
77384;SDS011;66443;49.122;8.346;2023-03-20T14:31:12;1.63;;;1.50;;
77384;SDS011;66443;49.122;8.346;2023-03-20T14:33:41;2.33;;;2.13;;
77384;SDS011;66443;49.122;8.346;2023-03-20T14:36:26;2.40;;;2.20;;
77384;SDS011;66443;49.122;8.346;2023-03-20T14:41:27;2.20;;;2.00;;
77384;SDS011;66443;49.122;8.346;2023-03-20T14:51:56;1.70;;;1.57;;
77384;SDS011;66443;49.122;8.346;2023-03-20T14:54:25;1.70;;;1.60;;
77384;SDS011;66443;49.122;8.346;2023-03-20T14:56:51;1.93;;;1.83;;
77384;SDS011;66443;49.122;8.346;2023-03-20T14:59:17;1.87;;;1.40;;
77384;SDS011;66443;49.122;8.346;2023-03-20T15:01:47;1.80;;;1.70;;
77384;SDS011;66443;49.122;8.346;2023-03-20T15:06:59;2.58;;;2.13;;
77384;SDS011;66443;49.122;8.346;2023-03-20T15:09:26;2.80;;;1.70;;
77384;SDS011;66443;49.122;8.346;2023-03-20T15:11:53;2.83;;;1.63;;
77384;SDS011;66443;49.122;8.346;2023-03-20T15:14:23;2.87;;;1.90;;
77384;SDS011;66443;49.122;8.346;2023-03-20T15:16:55;1.87;;;1.77;;
77384;SDS011;66443;49.122;8.346;2023-03-20T15:19:20;2.10;;;1.77;;
77384;SDS011;66443;49.122;8.346;2023-03-20T15:21:46;2.07;;;1.80;;
77384;SDS011;66443;49.122;8.346;2023-03-20T15:24:16;2.33;;;2.00;;
77384;SDS011;66443;49.122;8.346;2023-03-20T15:26:43;2.43;;;2.00;;
77384;SDS011;66443;49.122;8.346;2023-03-20T15:29:12;1.90;;;1.80;;
77384;SDS011;66443;49.122;8.346;2023-03-20T15:31:40;2.27;;;1.93;;
77384;SDS011;66443;49.122;8.346;2023-03-20T15:34:07;1.67;;;1.57;;
77384;SDS011;66443;49.122;8.346;2023-03-20T15:36:33;2.10;;;1.30;;
77384;SDS011;66443;49.122;8.346;2023-03-20T15:39:12;3.63;;;1.30;;
77384;SDS011;66443;49.122;8.346;2023-03-20T15:41:37;1.80;;;1.20;;
77384;SDS011;66443;49.122;8.346;2023-03-20T15:44:11;3.73;;;1.30;;
77384;SDS011;66443;49.122;8.346;2023-03-20T15:46:39;5.87;;;1.40;;
77384;SDS011;66443;49.122;8.346;2023-03-20T15:49:05;2.10;;;1.90;;
77384;SDS011;66443;49.122;8.346;2023-03-20T15:51:30;1.97;;;1.30;;
77384;SDS011;66443;49.122;8.346;2023-03-20T15:53:57;2.17;;;1.73;;
77384;SDS011;66443;49.122;8.346;2023-03-20T15:56:23;1.97;;;1.50;;
77384;SDS011;66443;49.122;8.346;2023-03-20T15:58:49;2.07;;;1.30;;
77384;SDS011;66443;49.122;8.346;2023-03-20T16:01:17;2.30;;;1.60;;
77384;SDS011;66443;49.122;8.346;2023-03-20T16:03:43;1.97;;;1.77;;
77384;SDS011;66443;49.122;8.346;2023-03-20T16:06:08;2.80;;;1.70;;
77384;SDS011;66443;49.122;8.346;2023-03-20T16:08:35;2.10;;;1.90;;
77384;SDS011;66443;49.122;8.346;2023-03-20T16:11:04;2.37;;;1.80;;
77384;SDS011;66443;49.122;8.346;2023-03-20T16:13:39;5.07;;;2.60;;
77384;SDS011;66443;49.122;8.346;2023-03-20T16:16:05;2.23;;;1.93;;
77384;SDS011;66443;49.122;8.346;2023-03-20T16:18:33;2.93;;;1.87;;
77384;SDS011;66443;49.122;8.346;2023-03-20T16:21:01;3.50;;;2.03;;
77384;SDS011;66443;49.122;8.346;2023-03-20T16:23:48;3.93;;;2.30;;
77384;SDS011;66443;49.122;8.346;2023-03-20T16:26:15;2.33;;;2.10;;
77384;SDS011;66443;49.122;8.346;2023-03-20T16:28:41;1.80;;;1.57;;
77384;SDS011;66443;49.122;8.346;2023-03-20T16:31:11;2.30;;;2.10;;
77384;SDS011;66443;49.122;8.346;2023-03-20T16:33:37;2.40;;;2.20;;
77384;SDS011;66443;49.122;8.346;2023-03-20T16:36:03;5.53;;;1.93;;
77384;SDS011;66443;49.122;8.346;2023-03-20T16:38:30;2.37;;;2.07;;
77384;SDS011;66443;49.122;8.346;2023-03-20T16:41:11;3.63;;;3.30;;
77384;SDS011;66443;49.122;8.346;2023-03-20T16:43:37;2.27;;;1.80;;
77384;SDS011;66443;49.122;8.346;2023-03-20T16:46:03;2.50;;;1.80;;
77384;SDS011;66443;49.122;8.346;2023-03-20T16:48:30;3.50;;;2.30;;
77384;SDS011;66443;49.122;8.346;2023-03-20T16:50:56;2.23;;;1.90;;
77384;SDS011;66443;49.122;8.346;2023-03-20T16:53:23;2.37;;;1.90;;
77384;SDS011;66443;49.122;8.346;2023-03-20T16:55:51;4.27;;;3.50;;